createdAt,value
2022-08-07T00:00:13.633Z,1.60
2022-08-07T00:02:44.357Z,1.37
2022-08-07T00:05:14.085Z,1.70
2022-08-07T00:07:43.209Z,1.80
2022-08-07T00:10:26.417Z,1.40
2022-08-07T00:12:59.725Z,1.47
2022-08-07T00:15:38.442Z,1.70
2022-08-07T00:18:19.308Z,1.33
2022-08-07T00:20:50.891Z,1.50
2022-08-07T00:23:21.244Z,1.60
2022-08-07T00:26:00.398Z,1.53
2022-08-07T00:28:34.432Z,1.37
2022-08-07T00:31:16.612Z,1.50
2022-08-07T00:33:47.966Z,1.57
2022-08-07T00:36:17.737Z,1.80
2022-08-07T00:38:47.012Z,1.67
2022-08-07T00:41:30.017Z,1.90
2022-08-07T00:44:02.966Z,1.70
2022-08-07T00:46:34.074Z,1.43
2022-08-07T00:49:03.854Z,1.40
2022-08-07T00:51:57.389Z,1.83
2022-08-07T00:54:23.792Z,1.57
2022-08-07T00:56:54.719Z,1.60
2022-08-07T00:59:35.325Z,1.80
2022-08-07T01:02:08.857Z,1.47
2022-08-07T01:04:44.031Z,1.70
2022-08-07T01:07:16.164Z,1.60
2022-08-07T01:10:06.765Z,1.33
2022-08-07T01:12:39.732Z,1.57
2022-08-07T01:15:35.774Z,1.40
2022-08-07T01:18:16.895Z,1.50
2022-08-07T01:20:58.465Z,1.60
2022-08-07T01:23:39.372Z,1.70
2022-08-07T01:26:16.897Z,1.20
2022-08-07T01:28:53.288Z,1.30
2022-08-07T01:31:41.532Z,1.30
2022-08-07T01:34:15.092Z,1.30
2022-08-07T01:36:52.620Z,1.10
2022-08-07T01:39:40.969Z,1.27
2022-08-07T01:42:57.396Z,1.40
2022-08-07T01:45:36.964Z,1.40
2022-08-07T01:48:20.560Z,1.50
2022-08-07T01:51:24.727Z,1.50
2022-08-07T01:54:11.745Z,1.30
2022-08-07T01:56:52.707Z,1.80
2022-08-07T01:59:30.838Z,1.50
2022-08-07T02:02:10.402Z,1.83
2022-08-07T02:04:56.454Z,1.90
2022-08-07T02:07:44.803Z,1.73
2022-08-07T02:10:27.381Z,1.87
2022-08-07T02:13:01.951Z,1.63
2022-08-07T02:15:41.518Z,1.43
2022-08-07T02:18:16.422Z,1.50
2022-08-07T02:20:55.811Z,1.60
2022-08-07T02:23:30.145Z,1.90
2022-08-07T02:26:26.742Z,1.77
2022-08-07T02:29:00.863Z,1.90
2022-08-07T02:31:32.554Z,1.70
2022-08-07T02:34:11.281Z,2.00
2022-08-07T02:36:52.413Z,2.00
2022-08-07T02:39:43.637Z,1.90
2022-08-07T02:42:18.854Z,2.00
2022-08-07T02:44:58.438Z,1.63
2022-08-07T02:47:45.102Z,2.00
2022-08-07T02:50:23.216Z,1.60
2022-08-07T02:53:03.491Z,1.80
2022-08-07T02:56:02.662Z,1.83
2022-08-07T02:58:28.711Z,2.00
2022-08-07T03:01:05.862Z,1.60
2022-08-07T03:03:50.855Z,1.70
2022-08-07T03:06:33.034Z,1.70
2022-08-07T03:09:07.794Z,1.93
2022-08-07T03:11:52.441Z,1.80
2022-08-07T03:14:36.693Z,1.93
2022-08-07T03:17:09.822Z,1.77
2022-08-07T03:19:41.274Z,1.70
2022-08-07T03:22:18.856Z,1.83
2022-08-07T03:24:51.410Z,1.90
2022-08-07T03:27:30.803Z,1.80
2022-08-07T03:30:14.931Z,1.93
2022-08-07T03:32:58.675Z,2.07
2022-08-07T03:35:43.438Z,2.10
2022-08-07T03:38:20.912Z,1.80
2022-08-07T03:40:53.907Z,1.90
2022-08-07T03:43:33.078Z,2.10
2022-08-07T03:46:10.462Z,1.80
2022-08-07T03:49:02.675Z,2.10
2022-08-07T03:51:47.003Z,2.30
2022-08-07T03:54:35.698Z,2.30
2022-08-07T03:58:08.721Z,2.10
2022-08-07T04:00:03.995Z,2.23
2022-08-07T04:02:47.232Z,2.13
2022-08-07T04:05:40.292Z,1.97
2022-08-07T04:08:18.459Z,2.20
2022-08-07T04:10:54.340Z,2.20
2022-08-07T04:14:32.973Z,2.17
2022-08-07T04:16:33.981Z,2.03
2022-08-07T04:19:12.709Z,2.00
2022-08-07T04:21:59.569Z,2.00
2022-08-07T04:24:41.146Z,2.10
2022-08-07T04:27:15.096Z,2.10
2022-08-07T04:30:01.508Z,2.00
2022-08-07T04:32:48.183Z,1.80
2022-08-07T04:35:28.905Z,2.03
2022-08-07T04:38:13.199Z,1.90
2022-08-07T04:40:52.203Z,2.13
2022-08-07T04:44:10.578Z,2.23
2022-08-07T04:46:35.893Z,1.80
2022-08-07T04:49:24.672Z,1.80
2022-08-07T04:52:05.120Z,2.17
2022-08-07T04:54:41.164Z,2.00
2022-08-07T04:58:13.070Z,2.20
2022-08-07T05:00:30.321Z,2.20
2022-08-07T05:03:31.081Z,1.77
2022-08-07T05:06:16.523Z,1.97
2022-08-07T05:09:02.153Z,1.73
2022-08-07T05:11:56.881Z,1.87
2022-08-07T05:14:53.406Z,1.83
2022-08-07T05:17:51.965Z,1.70
2022-08-07T05:20:25.834Z,1.70
2022-08-07T05:23:03.937Z,1.60
2022-08-07T05:26:10.435Z,1.50
2022-08-07T05:28:27.614Z,1.40
2022-08-07T05:31:07.776Z,1.40
2022-08-07T05:33:41.062Z,1.30
2022-08-07T05:36:35.335Z,1.20
2022-08-07T05:40:06.348Z,1.30
2022-08-07T05:42:07.501Z,1.37
2022-08-07T05:44:46.515Z,1.50
2022-08-07T05:47:38.646Z,1.53
2022-08-07T05:50:15.310Z,1.37
2022-08-07T05:52:46.065Z,1.27
2022-08-07T05:55:17.409Z,1.30
2022-08-07T05:57:49.542Z,1.40
2022-08-07T06:00:22.550Z,1.33
2022-08-07T06:03:02.180Z,1.30
2022-08-07T06:05:34.274Z,1.20
2022-08-07T06:08:30.396Z,1.20
2022-08-07T06:11:03.774Z,1.23
2022-08-07T06:14:12.787Z,1.30
2022-08-07T06:16:29.351Z,1.33
2022-08-07T06:19:01.821Z,1.17
2022-08-07T06:22:14.841Z,1.10
2022-08-07T06:24:48.172Z,1.07
2022-08-07T06:27:11.000Z,1.20
2022-08-07T06:29:54.577Z,1.00
2022-08-07T06:32:26.077Z,1.10
2022-08-07T06:34:59.155Z,1.30
2022-08-07T06:37:44.088Z,1.13
2022-08-07T06:40:20.202Z,1.20
2022-08-07T06:42:54.822Z,1.07
2022-08-07T06:45:39.913Z,1.30
2022-08-07T06:48:15.768Z,1.20
2022-08-07T06:50:59.618Z,1.10
2022-08-07T06:54:11.934Z,1.37
2022-08-07T06:56:49.791Z,1.40
2022-08-07T07:00:12.995Z,1.13
2022-08-07T07:02:49.081Z,1.03
2022-08-07T07:05:13.776Z,1.00
2022-08-07T07:08:07.319Z,0.83
2022-08-07T07:10:47.523Z,1.10
2022-08-07T07:13:55.638Z,1.02
2022-08-07T07:16:30.319Z,0.77
2022-08-07T07:19:34.119Z,0.77
2022-08-07T07:22:11.832Z,0.95
2022-08-07T07:24:58.497Z,0.70
2022-08-07T07:27:55.810Z,0.70
2022-08-07T07:30:38.345Z,0.83
2022-08-07T07:33:12.356Z,0.90
2022-08-07T07:36:04.430Z,0.82
2022-08-07T07:38:36.642Z,0.70
2022-08-07T07:41:12.295Z,0.90
2022-08-07T07:44:13.771Z,0.82
2022-08-07T07:46:54.140Z,0.85
2022-08-07T07:50:35.612Z,0.77
2022-08-07T07:52:29.605Z,1.00
2022-08-07T07:55:03.586Z,0.73
2022-08-07T07:57:43.748Z,1.10
2022-08-07T08:00:29.468Z,0.70
2022-08-07T08:03:06.315Z,0.68
2022-08-07T08:05:53.714Z,0.50
2022-08-07T08:08:34.373Z,0.88
2022-08-07T08:11:16.191Z,0.80
2022-08-07T08:13:54.680Z,0.80
2022-08-07T08:16:35.249Z,0.70
2022-08-07T08:19:17.935Z,0.80
2022-08-07T08:22:17.290Z,0.90
2022-08-07T08:25:24.699Z,0.60
2022-08-07T08:28:03.627Z,0.70
2022-08-07T08:30:37.593Z,0.57
2022-08-07T08:33:18.923Z,0.52
2022-08-07T08:35:55.353Z,0.70
2022-08-07T08:38:29.992Z,0.63
2022-08-07T08:41:13.657Z,0.57
2022-08-07T08:43:59.216Z,0.70
2022-08-07T08:46:39.594Z,0.57
2022-08-07T08:49:33.618Z,0.60
2022-08-07T08:52:19.001Z,0.55
2022-08-07T08:55:01.013Z,0.80
2022-08-07T08:57:39.806Z,0.75
2022-08-07T09:00:14.485Z,0.50
2022-08-07T09:02:52.608Z,0.65
2022-08-07T09:05:41.516Z,0.50
2022-08-07T09:08:28.243Z,0.40
2022-08-07T09:11:14.080Z,0.57
2022-08-07T09:14:06.585Z,0.40
2022-08-07T09:16:51.120Z,0.73
2022-08-07T09:19:53.301Z,0.50
2022-08-07T09:24:33.732Z,0.45
2022-08-07T09:25:27.985Z,0.60
2022-08-07T09:28:06.367Z,0.70
2022-08-07T09:31:01.793Z,0.50
2022-08-07T09:33:56.597Z,0.70
2022-08-07T09:36:37.349Z,0.70
2022-08-07T09:39:52.761Z,0.70
2022-08-07T09:42:34.126Z,0.73
2022-08-07T09:47:24.464Z,0.63
2022-08-07T09:48:15.201Z,0.65
2022-08-07T09:51:02.435Z,0.70
2022-08-07T09:53:41.288Z,0.68
2022-08-07T09:56:37.501Z,0.75
2022-08-07T09:59:46.480Z,0.90
2022-08-07T10:02:55.006Z,0.70
2022-08-07T10:06:00.792Z,0.70
2022-08-07T10:08:57.194Z,0.80
2022-08-07T10:12:01.940Z,0.68
2022-08-07T10:14:58.823Z,0.90
2022-08-07T10:18:00.856Z,1.00
2022-08-07T10:20:41.339Z,0.70
2022-08-07T10:24:05.846Z,0.90
2022-08-07T10:26:51.823Z,1.17
2022-08-07T10:29:51.658Z,0.70
2022-08-07T10:32:36.848Z,0.80
2022-08-07T10:35:55.700Z,0.75
2022-08-07T10:38:48.475Z,1.38
2022-08-07T10:41:51.419Z,0.60
2022-08-07T10:44:28.377Z,0.68
2022-08-07T10:47:17.385Z,0.88
2022-08-07T10:49:52.185Z,0.70
2022-08-07T10:52:31.852Z,0.82
2022-08-07T10:55:20.860Z,0.80
2022-08-07T10:58:12.611Z,0.80
2022-08-07T11:00:56.088Z,1.00
2022-08-07T11:03:37.329Z,0.70
2022-08-07T11:06:21.969Z,0.70
2022-08-07T11:08:56.939Z,0.80
2022-08-07T11:11:35.996Z,0.80
2022-08-07T11:14:45.536Z,0.68
2022-08-07T11:17:23.232Z,1.00
2022-08-07T11:20:09.752Z,0.70
2022-08-07T11:22:50.314Z,0.77
2022-08-07T11:25:27.237Z,0.70
2022-08-07T11:28:04.069Z,0.77
2022-08-07T11:30:45.255Z,0.68
2022-08-07T11:33:54.353Z,0.75
2022-08-07T11:36:30.890Z,0.65
2022-08-07T11:39:14.649Z,0.95
2022-08-07T11:42:01.863Z,0.70
2022-08-07T11:44:52.650Z,0.88
2022-08-07T11:47:59.158Z,0.68
2022-08-07T11:50:44.723Z,0.50
2022-08-07T11:53:37.475Z,0.60
2022-08-07T11:56:29.442Z,0.90
2022-08-07T12:00:07.689Z,0.95
2022-08-07T12:02:30.317Z,0.65
2022-08-07T12:05:28.833Z,0.70
2022-08-07T12:08:26.047Z,0.50
2022-08-07T12:11:21.110Z,0.75
2022-08-07T12:13:58.821Z,0.80
2022-08-07T12:16:32.825Z,0.82
2022-08-07T12:19:14.659Z,0.50
2022-08-07T12:22:38.845Z,0.60
2022-08-07T12:26:03.337Z,0.60
2022-08-07T12:28:27.654Z,1.10
2022-08-07T12:31:09.351Z,0.60
2022-08-07T12:34:00.858Z,0.80
2022-08-07T12:36:33.325Z,0.60
2022-08-07T12:39:42.714Z,0.90
2022-08-07T12:41:59.773Z,0.70
2022-08-07T12:44:32.952Z,0.90
2022-08-07T12:47:21.486Z,0.60
2022-08-07T12:50:34.071Z,0.80
2022-08-07T12:53:05.245Z,0.65
2022-08-07T12:56:02.777Z,0.50
2022-08-07T12:58:39.868Z,1.20
2022-08-07T13:01:32.208Z,0.60
2022-08-07T13:04:34.199Z,1.10
2022-08-07T13:08:14.598Z,0.70
2022-08-07T13:10:41.127Z,0.75
2022-08-07T13:13:48.122Z,0.60
2022-08-07T13:16:29.639Z,0.68
2022-08-07T13:19:18.385Z,0.50
2022-08-07T13:22:06.175Z,0.55
2022-08-07T13:24:54.383Z,0.57
2022-08-07T13:28:05.523Z,0.60
2022-08-07T13:30:41.064Z,0.60
2022-08-07T13:34:33.353Z,0.60
2022-08-07T13:36:17.633Z,0.80
2022-08-07T13:38:57.792Z,0.70
2022-08-07T13:41:41.483Z,0.55
2022-08-07T13:44:13.078Z,0.75
2022-08-07T13:46:49.331Z,0.82
2022-08-07T13:50:34.508Z,0.60
2022-08-07T13:52:22.861Z,0.60
2022-08-07T13:55:08.019Z,0.50
2022-08-07T13:57:59.027Z,0.50
2022-08-07T14:00:50.460Z,0.60
2022-08-07T14:03:29.574Z,0.88
2022-08-07T14:06:18.302Z,0.60
2022-08-07T14:08:53.630Z,0.52
2022-08-07T14:11:26.906Z,0.60
2022-08-07T14:14:18.246Z,0.63
2022-08-07T14:16:52.155Z,0.50
2022-08-07T14:20:43.262Z,0.60
2022-08-07T14:22:34.778Z,0.55
2022-08-07T14:25:11.990Z,0.60
2022-08-07T14:28:10.607Z,0.60
2022-08-07T14:30:40.831Z,0.68
2022-08-07T14:33:14.889Z,0.50
2022-08-07T14:35:48.863Z,0.60
2022-08-07T14:38:31.364Z,0.68
2022-08-07T14:41:14.620Z,0.75
2022-08-07T14:43:58.386Z,0.70
2022-08-07T14:46:37.806Z,0.52
2022-08-07T14:49:58.172Z,0.40
2022-08-07T14:52:17.705Z,0.80
2022-08-07T14:54:54.252Z,0.63
2022-08-07T14:57:54.478Z,0.73
2022-08-07T15:00:20.605Z,0.35
2022-08-07T15:03:16.423Z,0.47
2022-08-07T15:05:54.991Z,0.50
2022-08-07T15:08:50.402Z,0.40
2022-08-07T15:14:20.185Z,0.70
2022-08-07T15:20:31.325Z,0.50
2022-08-07T15:22:51.669Z,0.45
2022-08-07T15:25:36.846Z,0.68
2022-08-07T15:28:34.714Z,0.60
2022-08-07T15:31:06.533Z,0.90
2022-08-07T15:33:42.777Z,0.50
2022-08-07T15:36:13.946Z,0.45
2022-08-07T15:39:10.386Z,0.50
2022-08-07T15:42:44.206Z,0.52
2022-08-07T15:44:52.896Z,0.60
2022-08-07T15:48:00.238Z,0.50
2022-08-07T15:54:44.264Z,0.55
2022-08-07T15:57:40.119Z,0.60
2022-08-07T16:00:31.433Z,0.60
2022-08-07T16:03:06.654Z,0.60
2022-08-07T16:05:51.967Z,0.60
2022-08-07T16:08:31.706Z,0.82
2022-08-07T16:11:26.576Z,0.80
2022-08-07T16:14:12.094Z,0.70
2022-08-07T16:16:57.631Z,0.50
2022-08-07T16:19:59.722Z,0.60
2022-08-07T16:22:55.200Z,0.60
2022-08-07T16:25:54.891Z,0.60
2022-08-07T16:30:08.899Z,0.60
2022-08-07T16:32:01.503Z,0.70
2022-08-07T16:34:48.331Z,0.50
2022-08-07T16:38:04.118Z,0.60
2022-08-07T16:41:22.247Z,0.55
2022-08-07T16:44:46.988Z,0.50
2022-08-07T16:47:56.599Z,0.70
2022-08-07T16:51:21.559Z,0.73
2022-08-07T16:54:08.952Z,0.55
2022-08-07T16:57:03.298Z,0.60
2022-08-07T16:59:47.411Z,0.70
2022-08-07T17:02:51.217Z,0.65
2022-08-07T17:06:28.651Z,1.15
2022-08-07T17:09:09.093Z,1.08
2022-08-07T17:12:01.378Z,1.08
2022-08-07T17:14:34.402Z,0.85
2022-08-07T17:17:12.124Z,0.95
2022-08-07T17:20:02.252Z,1.10
2022-08-07T17:22:38.626Z,0.70
2022-08-07T17:25:20.390Z,0.57
2022-08-07T17:28:19.660Z,0.68
2022-08-07T17:30:59.148Z,0.68
2022-08-07T17:34:10.286Z,2.33
2022-08-07T17:36:29.196Z,0.70
2022-08-07T17:39:16.379Z,0.85
2022-08-07T17:42:01.628Z,0.80
2022-08-07T17:44:49.444Z,0.98
2022-08-07T17:47:38.332Z,0.60
2022-08-07T17:50:19.962Z,0.65
2022-08-07T17:52:58.983Z,0.73
2022-08-07T17:56:01.305Z,0.80
2022-08-07T17:58:37.684Z,1.08
2022-08-07T18:01:21.429Z,0.90
2022-08-07T18:04:16.475Z,0.80
2022-08-07T18:06:57.946Z,0.60
2022-08-07T18:10:09.950Z,0.63
2022-08-07T18:13:09.614Z,1.42
2022-08-07T18:15:58.387Z,1.63
2022-08-07T18:21:02.816Z,1.20
2022-08-07T18:21:53.399Z,1.15
2022-08-07T18:24:33.441Z,1.30
2022-08-07T18:27:38.339Z,0.85
2022-08-07T18:30:33.112Z,1.20
2022-08-07T18:33:55.446Z,0.75
2022-08-07T18:36:42.702Z,1.55
2022-08-07T18:40:08.271Z,1.00
2022-08-07T18:42:56.319Z,1.00
2022-08-07T18:46:22.004Z,0.98
2022-08-07T18:50:19.571Z,1.10
2022-08-07T18:52:38.791Z,1.00
2022-08-07T18:54:50.911Z,1.10
2022-08-07T18:57:37.770Z,1.05
2022-08-07T19:00:34.362Z,1.10
2022-08-07T19:03:16.134Z,1.30
2022-08-07T19:06:02.137Z,1.20
2022-08-07T19:08:56.271Z,1.70
2022-08-07T19:12:04.714Z,3.40
2022-08-07T19:14:55.764Z,1.07
2022-08-07T19:17:59.333Z,1.33
2022-08-07T19:20:38.568Z,1.30
2022-08-07T19:23:58.849Z,1.17
2022-08-07T19:26:29.542Z,1.20
2022-08-07T19:31:06.040Z,1.08
2022-08-07T19:32:18.039Z,0.90
2022-08-07T19:34:58.475Z,0.90
2022-08-07T19:37:56.623Z,0.90
2022-08-07T19:40:31.407Z,1.17
2022-08-07T19:43:12.726Z,0.90
2022-08-07T19:46:07.923Z,1.10
2022-08-07T19:48:44.315Z,1.20
2022-08-07T19:51:51.340Z,1.00
2022-08-07T19:54:32.247Z,1.20
2022-08-07T19:58:03.416Z,1.50
2022-08-07T20:00:28.836Z,1.33
2022-08-07T20:03:33.709Z,1.20
2022-08-07T20:06:02.024Z,1.47
2022-08-07T20:08:38.645Z,1.40
2022-08-07T20:11:15.134Z,1.87
2022-08-07T20:14:13.609Z,2.00
2022-08-07T20:16:54.330Z,2.27
2022-08-07T20:19:49.415Z,2.13
2022-08-07T20:22:28.959Z,2.13
2022-08-07T20:25:19.386Z,1.90
2022-08-07T20:27:58.531Z,1.97
2022-08-07T20:30:37.709Z,2.30
2022-08-07T20:33:36.345Z,2.03
2022-08-07T20:36:06.828Z,1.90
2022-08-07T20:38:53.637Z,2.10
2022-08-07T20:41:38.544Z,2.40
2022-08-07T20:44:15.750Z,1.93
2022-08-07T20:47:05.886Z,2.37
2022-08-07T20:49:57.751Z,1.83
2022-08-07T20:52:51.989Z,1.87
2022-08-07T20:55:28.672Z,1.97
2022-08-07T20:58:12.220Z,1.97
2022-08-07T21:00:58.448Z,1.97
2022-08-07T21:04:13.146Z,1.87
2022-08-07T21:06:46.714Z,1.73
2022-08-07T21:09:51.788Z,1.67
2022-08-07T21:12:30.827Z,2.17
2022-08-07T21:15:18.817Z,1.60
2022-08-07T21:18:20.782Z,1.97
2022-08-07T21:20:56.346Z,2.03
2022-08-07T21:23:55.936Z,1.57
2022-08-07T21:26:54.863Z,1.80
2022-08-07T21:29:37.335Z,1.77
2022-08-07T21:32:44.178Z,1.60
2022-08-07T21:35:11.738Z,1.80
2022-08-07T21:37:58.972Z,1.53
2022-08-07T21:40:39.367Z,1.97
2022-08-07T21:43:15.465Z,1.90
2022-08-07T21:46:11.077Z,1.80
2022-08-07T21:49:03.372Z,2.23
2022-08-07T21:51:51.096Z,1.80
2022-08-07T21:54:31.801Z,2.07
2022-08-07T21:57:39.592Z,2.00
2022-08-07T22:00:20.496Z,1.70
2022-08-07T22:03:06.332Z,1.60
2022-08-07T22:05:48.233Z,1.60
2022-08-07T22:08:23.378Z,1.70
2022-08-07T22:11:00.239Z,1.90
2022-08-07T22:13:50.872Z,2.20
2022-08-07T22:16:38.652Z,1.90
2022-08-07T22:19:29.638Z,2.10
2022-08-07T22:22:21.592Z,1.90
2022-08-07T22:25:12.183Z,1.80
2022-08-07T22:28:19.776Z,2.23
2022-08-07T22:30:52.733Z,1.90
2022-08-07T22:33:53.091Z,1.83
2022-08-07T22:36:39.812Z,1.97
2022-08-07T22:39:23.494Z,1.70
2022-08-07T22:42:18.783Z,1.77
2022-08-07T22:44:58.228Z,1.80
2022-08-07T22:48:01.416Z,1.90
2022-08-07T22:50:48.526Z,2.03
2022-08-07T22:54:08.866Z,2.27
2022-08-07T22:56:50.818Z,1.77
2022-08-07T22:59:51.833Z,2.13
2022-08-07T23:02:36.005Z,2.20
2022-08-07T23:06:10.187Z,1.80
2022-08-07T23:08:46.760Z,1.80
2022-08-07T23:11:49.705Z,1.80
2022-08-07T23:14:35.515Z,1.73
2022-08-07T23:17:41.590Z,2.03
2022-08-07T23:20:51.688Z,2.30
2022-08-07T23:24:05.886Z,1.90
2022-08-07T23:27:01.452Z,1.70
2022-08-07T23:30:38.105Z,1.80
2022-08-07T23:34:34.243Z,1.87
2022-08-07T23:36:17.414Z,2.17
2022-08-07T23:39:08.604Z,1.93
2022-08-07T23:42:23.470Z,1.93
2022-08-07T23:46:01.357Z,1.87
2022-08-07T23:48:35.510Z,2.30
2022-08-07T23:52:53.481Z,2.03
2022-08-07T23:54:04.806Z,1.60
2022-08-07T23:56:53.468Z,2.10
